East Montpelier, Vermont
Current Conditions -  °F | °C
As of 11:51 AM on Wednesday 26 Nov 2014 (Local Time) from KMPV Reporting Station
Overcast Overcast  
Wind Chill: 27°   Ceiling: 6000
Heat Index: 32°   Visibility: 10mi
Dew Point: 22°   Wind: 5mph
Humidity: 66%   Direction: NA
Pressure: 30.17"   Gusts: NA
Location:  44.27°N, 72.49°W
Report Text: KMPV 261651Z AUTO VRB04KT 10SM OVC060 00/M06 A3017 RMK AO2 SLP231 T00001056
Loading
Personal Weather Stations






























Interactive Weather Map New forecast layout! Learn more

10-Day Weather Forecast

Advertisements
Track Severe Weather on mobile